createdAt,value
2019-04-06T00:02:33.399Z,100808.38
2019-04-06T00:05:22.769Z,100804.94
2019-04-06T00:08:12.811Z,100809.02
2019-04-06T00:11:02.557Z,100802.79
2019-04-06T00:13:52.152Z,100793.13
2019-04-06T00:16:41.513Z,100795.79
2019-04-06T00:19:31.181Z,100802.53
2019-04-06T00:22:20.327Z,100799.09
2019-04-06T00:25:11.554Z,100799.09
2019-04-06T00:28:00.799Z,100799.62
2019-04-06T00:31:13.530Z,100797.43
2019-04-06T00:34:02.945Z,100798.84
2019-04-06T00:36:52.963Z,100798.44
2019-04-06T00:39:42.146Z,100794.03
2019-04-06T00:42:31.605Z,100799.44
2019-04-06T00:45:21.452Z,100799.92
2019-04-06T00:48:11.237Z,100796.47
2019-04-06T00:51:01.056Z,100794.25
2019-04-06T00:53:50.079Z,100795.22
2019-04-06T00:56:40.138Z,100792.14
2019-04-06T00:59:30.060Z,100785.55
2019-04-06T01:02:20.248Z,100787.33
2019-04-06T01:05:09.219Z,100784.30
2019-04-06T01:07:58.837Z,100784.74
2019-04-06T01:10:48.513Z,100778.14
2019-04-06T01:13:38.292Z,100772.81
2019-04-06T01:16:28.106Z,100765.37
2019-04-06T01:19:18.260Z,100769.44
2019-04-06T01:22:07.415Z,100764.55
2019-04-06T01:24:57.113Z,100765.97
2019-04-06T01:27:46.780Z,100764.70
2019-04-06T01:30:35.927Z,100768.70
2019-04-06T01:33:25.516Z,100770.59
2019-04-06T01:36:14.910Z,100771.93
2019-04-06T01:39:05.728Z,100766.19
2019-04-06T01:41:55.516Z,100766.67
2019-04-06T01:44:44.899Z,100763.60
2019-04-06T01:47:34.371Z,100769.41
2019-04-06T01:50:23.765Z,100762.34
2019-04-06T01:53:12.624Z,100765.45
2019-04-06T01:56:03.046Z,100766.41
2019-04-06T01:58:52.200Z,100761.16
2019-04-06T02:01:53.416Z,100766.94
2019-04-06T02:04:42.529Z,100775.42
2019-04-06T02:07:32.216Z,100776.34
2019-04-06T02:10:21.979Z,100767.94
2019-04-06T02:13:11.607Z,100768.91
2019-04-06T02:16:01.778Z,100773.83
2019-04-06T02:18:50.859Z,100777.83
2019-04-06T02:21:40.389Z,100776.97
2019-04-06T02:24:30.402Z,100775.23
2019-04-06T02:27:20.120Z,100777.05
2019-04-06T02:30:24.529Z,100774.91
2019-04-06T02:33:39.423Z,100771.45
2019-04-06T02:37:02.518Z,100776.31
2019-04-06T02:39:59.527Z,100775.91
2019-04-06T02:42:52.381Z,100781.31
2019-04-06T02:45:41.952Z,100772.94
2019-04-06T02:48:30.732Z,100773.86
2019-04-06T02:51:19.963Z,100774.80
2019-04-06T02:54:09.621Z,100772.61
2019-04-06T02:56:59.483Z,100774.86
2019-04-06T02:59:48.923Z,100782.01
2019-04-06T03:02:38.874Z,100780.67
2019-04-06T03:05:28.365Z,100775.86
2019-04-06T03:08:17.492Z,100778.53
2019-04-06T03:11:07.363Z,100783.94
2019-04-06T03:13:56.599Z,100778.61
2019-04-06T03:16:45.741Z,100783.94
2019-04-06T03:19:35.067Z,100779.08
2019-04-06T03:22:24.632Z,100775.53
2019-04-06T03:25:14.585Z,100776.94
2019-04-06T03:28:03.778Z,100774.75
2019-04-06T03:30:53.513Z,100780.60
2019-04-06T03:33:43.253Z,100776.60
2019-04-06T03:36:32.955Z,100773.09
2019-04-06T03:39:23.080Z,100772.23
2019-04-06T03:42:12.024Z,100776.67
2019-04-06T03:45:01.768Z,100770.09
2019-04-06T03:47:51.476Z,100771.90
2019-04-06T03:50:41.106Z,100775.48
2019-04-06T03:53:30.773Z,100772.42
2019-04-06T03:56:19.726Z,100771.08
2019-04-06T03:59:09.136Z,100772.05
2019-04-06T04:01:57.893Z,100763.64
2019-04-06T04:04:47.651Z,100758.31
2019-04-06T04:07:36.729Z,100766.37
2019-04-06T04:10:41.138Z,100752.20
2019-04-06T04:13:30.796Z,100757.12
2019-04-06T04:16:20.735Z,100756.27
2019-04-06T04:19:10.529Z,100754.53
2019-04-06T04:21:59.929Z,100755.45
2019-04-06T04:24:49.267Z,100754.12
2019-04-06T04:27:40.803Z,100751.12
2019-04-06T04:30:33.113Z,100752.94
2019-04-06T04:33:20.831Z,100751.20
2019-04-06T04:36:10.196Z,100746.80
2019-04-06T04:39:00.020Z,100753.08
2019-04-06T04:41:48.873Z,100753.59
2019-04-06T04:44:37.673Z,100753.53
2019-04-06T04:47:27.003Z,100756.27
2019-04-06T04:50:16.452Z,100752.41
2019-04-06T04:53:06.034Z,100750.22
2019-04-06T04:55:55.546Z,100759.92
2019-04-06T04:58:45.081Z,100759.55
2019-04-06T05:01:34.259Z,100756.48
2019-04-06T05:04:24.587Z,100761.40
2019-04-06T05:07:14.296Z,100759.69
2019-04-06T05:10:03.796Z,100764.61
2019-04-06T05:12:53.743Z,100761.95
2019-04-06T05:16:11.644Z,100769.53
2019-04-06T05:18:59.963Z,100763.35
2019-04-06T05:21:49.356Z,100766.46
2019-04-06T05:24:38.154Z,100768.75
2019-04-06T05:27:27.617Z,100769.67
2019-04-06T05:30:17.023Z,100776.34
2019-04-06T05:33:05.745Z,100774.59
2019-04-06T05:35:55.458Z,100781.25
2019-04-06T05:38:44.686Z,100794.58
2019-04-06T05:41:33.614Z,100783.14
2019-04-06T05:44:23.359Z,100785.32
2019-04-06T05:47:13.358Z,100781.80
2019-04-06T05:50:02.581Z,100784.47
2019-04-06T05:52:52.219Z,100786.72
2019-04-06T05:55:41.139Z,100782.73
2019-04-06T05:58:30.874Z,100781.39
2019-04-06T06:01:20.261Z,100779.66
2019-04-06T06:04:10.791Z,100792.05
2019-04-06T06:07:01.495Z,100793.45
2019-04-06T06:09:50.777Z,100796.97
2019-04-06T06:12:40.270Z,100798.30
2019-04-06T06:15:29.039Z,100805.44
2019-04-06T06:18:26.382Z,100799.26
2019-04-06T06:21:09.545Z,100810.29
2019-04-06T06:23:59.065Z,100808.95
2019-04-06T06:26:48.537Z,100808.95
2019-04-06T06:29:37.813Z,100807.63
2019-04-06T06:32:27.694Z,100808.89
2019-04-06T06:35:16.960Z,100806.70
2019-04-06T06:38:06.636Z,100809.78
2019-04-06T06:40:57.848Z,100809.30
2019-04-06T06:43:47.107Z,100805.70
2019-04-06T06:46:36.578Z,100807.89
2019-04-06T06:49:25.713Z,100806.56
2019-04-06T06:52:14.931Z,100800.31
2019-04-06T06:55:04.507Z,100807.83
2019-04-06T06:57:53.872Z,100803.76
2019-04-06T07:00:44.089Z,100808.16
2019-04-06T07:03:32.868Z,100808.57
2019-04-06T07:06:22.795Z,100808.09
2019-04-06T07:09:12.111Z,100817.34
2019-04-06T07:12:02.052Z,100813.76
2019-04-06T07:14:51.063Z,100814.17
2019-04-06T07:17:40.148Z,100810.17
2019-04-06T07:20:29.253Z,100814.50
2019-04-06T07:23:18.825Z,100812.29
2019-04-06T07:26:07.564Z,100805.11
2019-04-06T07:28:56.927Z,100813.03
2019-04-06T07:31:47.556Z,100808.97
2019-04-06T07:34:37.357Z,100809.38
2019-04-06T07:37:27.004Z,100802.64
2019-04-06T07:40:17.222Z,100802.94
2019-04-06T07:43:06.419Z,100805.09
2019-04-06T07:45:56.001Z,100808.54
2019-04-06T07:48:46.490Z,100800.88
2019-04-06T07:51:35.770Z,100799.41
2019-04-06T07:54:24.907Z,100806.88
2019-04-06T07:57:14.439Z,100806.33
2019-04-06T08:00:04.627Z,100807.07
2019-04-06T08:02:53.914Z,100811.00
2019-04-06T08:05:43.198Z,100802.00
2019-04-06T08:08:32.949Z,100811.26
2019-04-06T08:11:22.085Z,100812.93
2019-04-06T08:14:11.039Z,100810.56
2019-04-06T08:17:00.955Z,100814.48
2019-04-06T08:19:50.933Z,100812.16
2019-04-06T08:22:40.608Z,100817.83
2019-04-06T08:25:30.191Z,100808.42
2019-04-06T08:28:19.831Z,100802.61
2019-04-06T08:31:09.186Z,100802.56
2019-04-06T08:34:00.376Z,100808.60
2019-04-06T08:36:50.197Z,100813.01
2019-04-06T08:39:40.714Z,100805.79
2019-04-06T08:42:30.862Z,100805.71
2019-04-06T08:45:20.062Z,100807.45
2019-04-06T08:48:10.177Z,100798.90
2019-04-06T08:51:01.123Z,100805.05
2019-04-06T08:53:50.503Z,100809.83
2019-04-06T08:56:39.876Z,100807.08
2019-04-06T08:59:30.838Z,100811.41
2019-04-06T09:02:20.357Z,100806.89
2019-04-06T09:05:11.204Z,100803.22
2019-04-06T09:08:01.339Z,100803.52
2019-04-06T09:10:50.872Z,100809.11
2019-04-06T09:13:40.557Z,100800.58
2019-04-06T09:16:29.849Z,100811.95
2019-04-06T09:19:20.314Z,100811.43
2019-04-06T09:22:12.365Z,100805.94
2019-04-06T09:25:04.633Z,100800.05
2019-04-06T09:27:54.519Z,100800.86
2019-04-06T09:30:44.050Z,100806.97
2019-04-06T09:33:33.720Z,100798.80
2019-04-06T09:36:23.863Z,100797.72
2019-04-06T09:39:14.008Z,100801.05
2019-04-06T09:42:03.147Z,100793.36
2019-04-06T09:44:59.079Z,100787.88
2019-04-06T09:48:05.911Z,100784.56
2019-04-06T09:51:32.012Z,100789.22
2019-04-06T09:54:29.114Z,100787.64
2019-04-06T09:57:36.625Z,100788.21
2019-04-06T10:00:40.813Z,100789.82
2019-04-06T10:03:51.597Z,100791.32
2019-04-06T10:07:03.374Z,100791.08
2019-04-06T10:10:17.186Z,100792.09
2019-04-06T10:13:15.533Z,100790.47
2019-04-06T10:16:13.178Z,100797.75
2019-04-06T10:19:33.647Z,100797.46
2019-04-06T10:22:41.653Z,100790.85
2019-04-06T10:25:49.489Z,100780.69
2019-04-06T10:28:51.824Z,100777.62
2019-04-06T10:32:00.171Z,100775.78
2019-04-06T10:35:18.042Z,100779.33
2019-04-06T10:38:35.739Z,100775.20
2019-04-06T10:41:30.181Z,100777.31
2019-04-06T10:44:37.219Z,100780.17
2019-04-06T10:47:47.063Z,100774.70
2019-04-06T10:50:45.627Z,100778.03
2019-04-06T10:54:00.148Z,100777.33
2019-04-06T10:57:09.396Z,100774.45
2019-04-06T11:00:07.825Z,100766.21
2019-04-06T11:03:12.715Z,100763.78
2019-04-06T11:06:08.290Z,100761.70
2019-04-06T11:09:15.224Z,100760.44
2019-04-06T11:12:35.704Z,100761.42
2019-04-06T11:15:57.232Z,100767.30
2019-04-06T11:19:11.931Z,100772.19
2019-04-06T11:22:17.572Z,100762.36
2019-04-06T11:25:14.181Z,100762.56
2019-04-06T11:28:28.718Z,100766.31
2019-04-06T11:31:37.978Z,100760.72
2019-04-06T11:34:45.837Z,100763.46
2019-04-06T11:37:52.997Z,100761.98
2019-04-06T11:40:51.170Z,100751.68
2019-04-06T11:43:45.942Z,100762.48
2019-04-06T11:46:52.828Z,100756.50
2019-04-06T11:50:10.206Z,100757.94
2019-04-06T11:53:20.600Z,100765.31
2019-04-06T11:56:25.047Z,100753.52
2019-04-06T11:59:21.792Z,100750.03
2019-04-06T12:02:22.399Z,100752.41
2019-04-06T12:05:25.184Z,100742.03
2019-04-06T12:08:33.632Z,100738.01
2019-04-06T12:11:39.605Z,100740.47
2019-04-06T12:14:36.101Z,100742.09
2019-04-06T12:17:39.417Z,100744.95
2019-04-06T12:20:38.303Z,100739.20
2019-04-06T12:23:45.334Z,100750.14
2019-04-06T12:26:42.272Z,100745.61
2019-04-06T12:30:09.095Z,100740.10
2019-04-06T12:33:24.961Z,100742.93
2019-04-06T12:36:25.100Z,100747.91
2019-04-06T12:39:34.016Z,100742.01
2019-04-06T12:42:45.948Z,100735.02
2019-04-06T12:45:52.694Z,100735.86
2019-04-06T12:49:01.567Z,100732.31
2019-04-06T12:52:27.508Z,100724.34
2019-04-06T12:55:31.443Z,100731.72
2019-04-06T12:58:31.514Z,100728.14
2019-04-06T13:01:43.308Z,100720.92
2019-04-06T13:04:52.191Z,100727.42
2019-04-06T13:08:12.453Z,100727.30
2019-04-06T13:11:14.315Z,100721.64
2019-04-06T13:14:23.914Z,100719.80
2019-04-06T13:17:30.139Z,100716.50
2019-04-06T13:20:31.202Z,100717.22
2019-04-06T13:23:38.765Z,100716.71
2019-04-06T13:26:53.426Z,100715.48
2019-04-06T13:30:00.860Z,100712.91
2019-04-06T13:33:09.252Z,100708.59
2019-04-06T13:36:17.109Z,100709.59
2019-04-06T13:39:24.966Z,100702.95
2019-04-06T13:42:24.863Z,100698.61
2019-04-06T13:45:26.856Z,100698.58
2019-04-06T13:48:48.189Z,100698.80
2019-04-06T13:51:48.541Z,100696.95
2019-04-06T13:54:56.807Z,100694.49
2019-04-06T13:58:03.762Z,100703.82
2019-04-06T14:01:13.613Z,100696.94
2019-04-06T14:04:13.500Z,100689.80
2019-04-06T14:07:11.334Z,100694.23
2019-04-06T14:10:34.275Z,100701.46
2019-04-06T14:13:31.274Z,100704.80
2019-04-06T14:16:30.999Z,100699.66
2019-04-06T14:19:34.381Z,100701.73
2019-04-06T14:22:30.828Z,100701.33
2019-04-06T14:25:37.883Z,100709.41
2019-04-06T14:28:45.343Z,100700.06
2019-04-06T14:31:52.748Z,100699.80
2019-04-06T14:35:10.860Z,100703.85
2019-04-06T14:38:18.698Z,100710.38
2019-04-06T14:41:25.483Z,100700.98
2019-04-06T14:44:42.875Z,100699.50
2019-04-06T14:47:51.221Z,100693.05
2019-04-06T14:50:55.494Z,100699.03
2019-04-06T14:53:57.013Z,100706.11
2019-04-06T14:56:59.468Z,100699.45
2019-04-06T14:59:57.166Z,100695.98
2019-04-06T15:03:06.165Z,100694.73
2019-04-06T15:06:12.987Z,100694.09
2019-04-06T15:09:27.949Z,100692.33
2019-04-06T15:12:35.814Z,100695.13
2019-04-06T15:15:56.660Z,100695.88
2019-04-06T15:19:10.495Z,100696.58
2019-04-06T15:22:18.941Z,100695.22
2019-04-06T15:25:21.478Z,100685.33
2019-04-06T15:28:21.323Z,100689.34
2019-04-06T15:31:29.073Z,100683.45
2019-04-06T15:34:36.118Z,100684.30
2019-04-06T15:37:36.537Z,100683.83
2019-04-06T15:40:44.506Z,100680.70
2019-04-06T15:43:47.435Z,100677.44
2019-04-06T15:46:52.445Z,100678.97
2019-04-06T15:50:13.056Z,100678.18
2019-04-06T15:53:16.634Z,100681.99
2019-04-06T15:56:28.131Z,100682.84
2019-04-06T15:59:23.334Z,100686.91
2019-04-06T16:02:31.311Z,100677.70
2019-04-06T16:05:39.021Z,100676.97
2019-04-06T16:08:50.077Z,100686.25
2019-04-06T16:11:59.157Z,100681.08
2019-04-06T16:15:01.380Z,100680.98
2019-04-06T16:18:13.223Z,100682.90
2019-04-06T16:21:33.546Z,100691.34
2019-04-06T16:24:33.537Z,100682.95
2019-04-06T16:27:35.594Z,100683.67
2019-04-06T16:30:44.747Z,100678.84
2019-04-06T16:33:43.722Z,100679.80
2019-04-06T16:36:59.180Z,100686.93
2019-04-06T16:40:06.226Z,100682.13
2019-04-06T16:43:01.067Z,100683.62
2019-04-06T16:46:10.445Z,100683.17
2019-04-06T16:49:07.688Z,100681.34
2019-04-06T16:52:09.139Z,100685.94
2019-04-06T16:55:16.633Z,100692.72
2019-04-06T16:58:15.434Z,100687.95
2019-04-06T17:01:22.842Z,100688.09
2019-04-06T17:04:29.816Z,100688.63
2019-04-06T17:07:44.161Z,100688.75
2019-04-06T17:10:47.295Z,100692.06
2019-04-06T17:13:48.545Z,100700.70
2019-04-06T17:16:56.029Z,100693.45
2019-04-06T17:19:55.174Z,100696.80
2019-04-06T17:23:04.352Z,100697.44
2019-04-06T17:26:12.811Z,100703.83
2019-04-06T17:29:15.483Z,100697.21
2019-04-06T17:32:15.118Z,100706.29
2019-04-06T17:35:29.078Z,100701.15
2019-04-06T17:38:30.554Z,100700.43
2019-04-06T17:41:45.320Z,100703.85
2019-04-06T17:45:00.219Z,100707.17
2019-04-06T17:48:09.316Z,100707.48
2019-04-06T17:51:10.170Z,100710.80
2019-04-06T17:54:14.621Z,100712.88
2019-04-06T17:57:23.395Z,100713.08
2019-04-06T18:00:37.932Z,100714.78
2019-04-06T18:03:59.897Z,100717.59
2019-04-06T18:07:21.566Z,100722.36
2019-04-06T18:10:18.516Z,100719.97
2019-04-06T18:13:16.251Z,100722.14
2019-04-06T18:16:07.181Z,100721.02
2019-04-06T18:18:56.509Z,100729.19
2019-04-06T18:21:49.158Z,100728.52
2019-04-06T18:24:39.496Z,100733.59
2019-04-06T18:27:29.884Z,100735.61
2019-04-06T18:30:21.294Z,100740.70
2019-04-06T18:33:17.685Z,100739.66
2019-04-06T18:36:07.359Z,100735.30
2019-04-06T18:39:01.744Z,100737.80
2019-04-06T18:41:55.167Z,100742.86
2019-04-06T18:44:48.624Z,100744.03
2019-04-06T18:47:38.173Z,100741.98
2019-04-06T18:50:35.984Z,100743.00
2019-04-06T18:53:22.718Z,100748.16
2019-04-06T18:56:14.095Z,100754.09
2019-04-06T18:59:05.284Z,100752.02
2019-04-06T19:01:55.407Z,100753.98
2019-04-06T19:04:47.617Z,100751.84
2019-04-06T19:07:37.106Z,100753.30
2019-04-06T19:10:34.251Z,100751.64
2019-04-06T19:13:24.069Z,100758.01
2019-04-06T19:16:14.345Z,100760.73
2019-04-06T19:19:06.215Z,100759.88
2019-04-06T19:21:55.656Z,100762.23
2019-04-06T19:24:48.104Z,100762.34
2019-04-06T19:27:40.680Z,100773.11
2019-04-06T19:30:30.624Z,100765.07
2019-04-06T19:33:25.075Z,100767.42
2019-04-06T19:36:14.712Z,100764.36
2019-04-06T19:39:06.983Z,100765.23
2019-04-06T19:41:59.721Z,100764.00
2019-04-06T19:44:53.624Z,100770.72
2019-04-06T19:47:43.627Z,100759.89
2019-04-06T19:50:38.200Z,100770.11
2019-04-06T19:53:29.255Z,100771.06
2019-04-06T19:56:19.149Z,100769.17
2019-04-06T19:59:12.838Z,100765.14
2019-04-06T20:02:03.598Z,100765.90
2019-04-06T20:04:54.776Z,100773.94
2019-04-06T20:07:47.128Z,100771.65
2019-04-06T20:10:39.623Z,100779.59
2019-04-06T20:13:35.172Z,100774.58
2019-04-06T20:16:26.716Z,100774.02
2019-04-06T20:19:16.265Z,100771.32
2019-04-06T20:22:06.444Z,100766.80
2019-04-06T20:24:59.343Z,100767.53
2019-04-06T20:27:52.289Z,100771.94
2019-04-06T20:30:44.712Z,100770.97
2019-04-06T20:33:48.405Z,100771.22
2019-04-06T20:36:31.800Z,100768.91
2019-04-06T20:39:24.145Z,100773.75
2019-04-06T20:42:15.577Z,100771.35
2019-04-06T20:45:07.090Z,100765.87
2019-04-06T20:48:00.773Z,100761.65
2019-04-06T20:50:51.077Z,100759.25
2019-04-06T20:53:44.169Z,100755.50
2019-04-06T20:56:34.271Z,100763.90
2019-04-06T20:59:28.339Z,100756.56
2019-04-06T21:02:19.818Z,100761.70
2019-04-06T21:05:11.363Z,100768.17
2019-04-06T21:08:01.336Z,100764.88
2019-04-06T21:10:53.300Z,100773.67
2019-04-06T21:13:52.833Z,100768.09
2019-04-06T21:16:42.509Z,100768.36
2019-04-06T21:19:33.977Z,100761.91
2019-04-06T21:22:24.956Z,100766.19
2019-04-06T21:25:16.555Z,100765.96
2019-04-06T21:28:06.666Z,100771.09
2019-04-06T21:30:56.470Z,100764.20
2019-04-06T21:33:47.388Z,100759.00
2019-04-06T21:36:38.022Z,100748.11
2019-04-06T21:39:27.908Z,100748.34
2019-04-06T21:42:18.264Z,100746.33
2019-04-06T21:45:11.356Z,100751.84
2019-04-06T21:48:00.796Z,100753.81
2019-04-06T21:50:53.435Z,100757.99
2019-04-06T21:53:48.001Z,100766.64
2019-04-06T21:56:39.747Z,100763.20
2019-04-06T21:59:30.409Z,100763.45
2019-04-06T22:02:20.131Z,100764.92
2019-04-06T22:05:10.289Z,100756.22
2019-04-06T22:08:01.322Z,100759.91
2019-04-06T22:10:50.906Z,100761.02
2019-04-06T22:13:40.176Z,100760.34
2019-04-06T22:16:30.473Z,100757.88
2019-04-06T22:19:20.239Z,100759.39
2019-04-06T22:22:10.219Z,100755.63
2019-04-06T22:24:59.770Z,100753.98
2019-04-06T22:27:50.617Z,100752.81
2019-04-06T22:30:40.914Z,100762.32
2019-04-06T22:33:35.791Z,100755.41
2019-04-06T22:36:24.776Z,100748.41
2019-04-06T22:39:14.468Z,100754.41
2019-04-06T22:42:06.196Z,100747.48
2019-04-06T22:44:56.037Z,100750.69
2019-04-06T22:47:46.293Z,100749.06
2019-04-06T22:50:36.558Z,100751.42
2019-04-06T22:53:25.879Z,100744.02
2019-04-06T22:56:15.896Z,100744.58
2019-04-06T22:59:07.463Z,100736.78
2019-04-06T23:01:57.267Z,100739.09
2019-04-06T23:04:57.600Z,100740.06
2019-04-06T23:07:46.779Z,100741.08
2019-04-06T23:10:37.293Z,100736.38
2019-04-06T23:13:26.941Z,100724.98
2019-04-06T23:16:17.035Z,100731.73
2019-04-06T23:19:06.383Z,100731.41
2019-04-06T23:21:55.720Z,100723.48
2019-04-06T23:24:45.446Z,100730.72
2019-04-06T23:27:35.322Z,100727.73
2019-04-06T23:30:24.921Z,100722.92
2019-04-06T23:33:14.285Z,100727.00
2019-04-06T23:36:03.844Z,100722.15
2019-04-06T23:38:53.237Z,100719.56
2019-04-06T23:41:42.745Z,100716.48
2019-04-06T23:44:33.012Z,100717.42
2019-04-06T23:47:22.043Z,100713.90
2019-04-06T23:50:11.368Z,100712.08
2019-04-06T23:53:01.368Z,100708.16
2019-04-06T23:55:51.780Z,100709.97
2019-04-06T23:58:42.080Z,100706.45
